Time;durP1;ratioP1;P1;durP2;ratioP2;P2;SDS_P1;SDS_P2;PMS_P1;PMS_P2;Temp;Humidity;BMP_temperature;BMP_pressure;BME280_temperature;BME280_humidity;BME280_pressure;Samples;Min_cycle;Max_cycle;Signal;HPM_P1;HPM_P2
2022/09/05 00:01:02;;;;;;;5.20;4.83;;;17.30;99.90;;;;;;5032684;28;20479;-72
2022/09/05 00:03:32;;;;;;;4.67;4.37;;;17.20;99.90;;;;;;5029804;28;20436;-72
2022/09/05 00:06:09;;;;;;;4.80;4.40;;;17.10;99.90;;;;;;5033526;28;20460;-72
2022/09/05 00:09:02;;;;;;;6.70;4.63;;;17.00;99.90;;;;;;5028445;28;20433;-72
2022/09/05 00:11:34;;;;;;;4.93;4.50;;;17.00;99.90;;;;;;5032172;28;20468;-72
2022/09/05 00:14:27;;;;;;;6.43;4.40;;;17.00;99.90;;;;;;5030928;28;20539;-72
2022/09/05 00:17:06;;;;;;;5.03;4.63;;;16.90;99.90;;;;;;5025564;28;20441;-72
2022/09/05 00:19:42;;;;;;;4.77;4.27;;;17.00;99.90;;;;;;5032526;28;20444;-72
2022/09/05 00:22:13;;;;;;;4.57;4.10;;;17.00;99.90;;;;;;5033115;28;20487;-72
2022/09/05 00:25:02;;;;;;;4.37;3.60;;;17.00;99.90;;;;;;5025924;28;20434;-72
2022/09/05 00:27:42;;;;;;;5.10;4.70;;;16.90;99.90;;;;;;5026692;28;20829;-72
2022/09/05 00:30:19;;;;;;;4.70;4.40;;;16.80;99.90;;;;;;5017528;28;20430;-72
2022/09/05 00:33:04;;;;;;;5.77;4.07;;;16.70;99.90;;;;;;5024701;28;20433;-72
2022/09/05 00:36:00;;;;;;;4.33;3.93;;;16.60;99.90;;;;;;5028064;28;20437;-72
2022/09/05 00:38:28;;;;;;;4.30;3.90;;;16.70;99.90;;;;;;5031006;28;20433;-72
2022/09/05 00:41:03;;;;;;;4.77;4.47;;;16.70;99.90;;;;;;5025276;28;20468;-72
2022/09/05 00:43:39;;;;;;;4.03;3.67;;;16.70;99.90;;;;;;5017104;28;20441;-72
2022/09/05 00:46:13;;;;;;;4.77;4.43;;;16.70;99.90;;;;;;5022172;28;20787;-72
2022/09/05 00:48:47;;;;;;;3.93;3.63;;;16.70;99.90;;;;;;5023092;28;20505;-72
2022/09/05 00:51:25;;;;;;;5.47;4.00;;;16.60;99.90;;;;;;5031179;28;20452;-72
2022/09/05 00:54:21;;;;;;;5.03;4.70;;;16.50;99.90;;;;;;5031097;28;20508;-72
2022/09/05 00:57:07;;;;;;;4.57;4.27;;;16.40;99.90;;;;;;5023466;28;20464;-72
2022/09/05 01:00:07;;;;;;;4.07;3.77;;;16.50;99.90;;;;;;5022684;28;20435;-72
2022/09/05 01:03:10;;;;;;;3.97;3.77;;;16.50;99.90;;;;;;5031046;28;20464;-72
2022/09/05 01:06:00;;;;;;;6.20;4.37;;;16.50;99.90;;;;;;5023195;28;20795;-72
2022/09/05 01:08:26;;;;;;;4.03;3.73;;;16.60;99.90;;;;;;5030386;28;20443;-72
2022/09/05 01:11:27;;;;;;;4.30;4.00;;;16.50;99.90;;;;;;5025356;28;20568;-72
2022/09/05 01:14:25;;;;;;;4.40;4.10;;;16.50;99.90;;;;;;5026183;28;20663;-72
2022/09/05 01:17:31;;;;;;;4.50;4.00;;;16.50;99.90;;;;;;5026418;28;20487;-72
2022/09/05 01:20:26;;;;;;;4.80;4.40;;;16.40;99.90;;;;;;5021599;28;20433;-72
2022/09/05 01:22:58;;;;;;;6.63;4.50;;;16.30;99.90;;;;;;5022925;28;20492;-72
2022/09/05 01:25:39;;;;;;;5.20;4.70;;;16.30;99.90;;;;;;5024004;28;20444;-72
2022/09/05 01:28:20;;;;;;;4.60;4.20;;;16.20;99.90;;;;;;5030688;28;20464;-72
2022/09/05 01:31:11;;;;;;;7.43;4.67;;;16.30;99.90;;;;;;5030403;28;20491;-72
2022/09/05 01:33:49;;;;;;;5.80;4.33;;;16.30;99.90;;;;;;5020358;28;20433;-72
2022/09/05 01:36:34;;;;;;;4.90;4.50;;;16.30;99.90;;;;;;5028781;28;20432;-72
2022/09/05 01:39:08;;;;;;;5.77;5.00;;;16.30;99.90;;;;;;5013232;28;20444;-72
2022/09/05 01:41:47;;;;;;;5.17;4.77;;;16.30;99.90;;;;;;5013557;28;20862;-72
2022/09/05 01:44:25;;;;;;;4.70;4.40;;;16.20;99.90;;;;;;5013989;28;20469;-73
2022/09/05 01:46:56;;;;;;;5.90;5.47;;;16.10;99.90;;;;;;5027889;28;20425;-73
2022/09/05 01:49:56;;;;;;;6.97;4.60;;;16.00;99.90;;;;;;5027448;28;21190;-72
2022/09/05 01:52:36;;;;;;;4.80;4.40;;;16.00;99.90;;;;;;5030469;28;20503;-72
2022/09/05 01:55:11;;;;;;;5.30;4.90;;;16.00;99.90;;;;;;5017731;28;20437;-72
2022/09/05 01:58:08;;;;;;;4.60;4.30;;;16.20;99.90;;;;;;5021487;28;20441;-73
2022/09/05 02:01:10;;;;;;;5.40;3.83;;;16.00;99.90;;;;;;5041957;28;20456;-72
2022/09/05 02:03:49;;;;;;;6.90;4.83;;;16.00;99.90;;;;;;5019762;28;20433;-73
2022/09/05 02:06:20;;;;;;;4.60;4.20;;;15.90;99.90;;;;;;5029677;28;20479;-73
2022/09/05 02:09:03;;;;;;;5.20;4.07;;;15.90;99.90;;;;;;5020941;28;20465;-73
2022/09/05 02:11:44;;;;;;;5.07;4.67;;;15.90;99.90;;;;;;5021839;28;20550;-72
2022/09/05 02:14:36;;;;;;;5.00;4.50;;;15.90;99.90;;;;;;5028614;28;20455;-72
2022/09/05 02:17:26;;;;;;;6.17;4.50;;;15.80;99.90;;;;;;5019367;28;20433;-72
2022/09/05 02:20:05;;;;;;;5.00;4.40;;;15.80;99.90;;;;;;5015046;28;20425;-72
2022/09/05 02:22:42;;;;;;;6.00;5.27;;;15.80;99.90;;;;;;5022713;28;20464;-73
2022/09/05 02:25:15;;;;;;;5.37;4.20;;;15.80;99.90;;;;;;5023786;28;20437;-73
2022/09/05 02:27:53;;;;;;;6.90;4.70;;;15.90;99.90;;;;;;5029564;28;20463;-72
2022/09/05 02:30:22;;;;;;;5.30;4.80;;;15.90;99.90;;;;;;5028730;28;20507;-72
2022/09/05 02:33:13;;;;;;;4.50;4.20;;;15.80;99.90;;;;;;5020623;28;20527;-72
2022/09/05 02:35:44;;;;;;;4.30;4.00;;;15.80;99.90;;;;;;5024761;28;20504;-72
2022/09/05 02:38:31;;;;;;;5.90;5.13;;;15.70;99.90;;;;;;5022486;28;20437;-73
2022/09/05 02:41:00;;;;;;;6.40;4.90;;;15.70;99.90;;;;;;5019972;28;21056;-72
2022/09/05 02:43:46;;;;;;;5.10;4.70;;;15.80;99.90;;;;;;5027374;28;20893;-72
2022/09/05 02:46:25;;;;;;;5.00;4.70;;;15.70;99.90;;;;;;5027999;28;20780;-72
2022/09/05 02:49:06;;;;;;;4.70;4.30;;;15.70;99.90;;;;;;5023016;28;20429;-72
2022/09/05 02:51:38;;;;;;;5.13;4.73;;;15.70;99.90;;;;;;5026561;28;20969;-72
2022/09/05 02:54:20;;;;;;;4.73;4.30;;;15.70;99.90;;;;;;5024120;28;20853;-72
2022/09/05 02:57:19;;;;;;;6.23;4.80;;;15.70;99.90;;;;;;5023627;28;20459;-72
2022/09/05 03:00:06;;;;;;;5.40;3.90;;;15.70;99.90;;;;;;5024021;28;20440;-72
2022/09/05 03:03:04;;;;;;;5.83;5.20;;;15.70;99.90;;;;;;5033461;28;20468;-72
2022/09/05 03:05:45;;;;;;;5.40;5.00;;;15.60;99.90;;;;;;5031495;28;20433;-72
2022/09/05 03:08:32;;;;;;;5.90;5.10;;;15.50;99.90;;;;;;5027482;28;20437;-72
2022/09/05 03:11:19;;;;;;;7.47;5.20;;;15.50;99.90;;;;;;5029587;28;20567;-72
2022/09/05 03:14:03;;;;;;;8.83;5.20;;;15.40;99.90;;;;;;5030726;28;20956;-73
2022/09/05 03:17:07;;;;;;;8.00;5.40;;;15.50;99.90;;;;;;5029389;28;20440;-72
2022/09/05 03:19:48;;;;;;;5.03;4.27;;;15.90;99.90;;;;;;4988654;28;20855;-72
2022/09/05 03:22:27;;;;;;;5.00;4.70;;;15.50;99.90;;;;;;5024956;28;20465;-72
2022/09/05 03:24:53;;;;;;;5.10;4.70;;;15.60;99.90;;;;;;5034130;28;20791;-73
2022/09/05 03:27:49;;;;;;;5.30;4.87;;;15.50;99.90;;;;;;5026537;28;20447;-73
2022/09/05 03:30:18;;;;;;;5.83;5.30;;;15.50;99.90;;;;;;5030588;28;20178;-73
2022/09/05 03:33:02;;;;;;;5.90;5.40;;;15.40;99.90;;;;;;5032181;28;20436;-73
2022/09/05 03:36:02;;;;;;;5.13;4.60;;;15.40;99.90;;;;;;5024974;28;20520;-73
2022/09/05 03:38:55;;;;;;;4.77;4.47;;;15.50;99.90;;;;;;5025459;28;21454;-73
2022/09/05 03:41:37;;;;;;;5.47;4.97;;;15.50;99.90;;;;;;5032300;28;20466;-73
2022/09/05 03:44:11;;;;;;;7.97;6.43;;;15.50;99.90;;;;;;5025632;28;20440;-73
2022/09/05 03:46:52;;;;;;;5.63;5.13;;;15.50;99.90;;;;;;5021660;28;20437;-73
2022/09/05 03:49:32;;;;;;;8.23;6.50;;;15.50;99.90;;;;;;5028610;28;20503;-73
2022/09/05 03:52:25;;;;;;;5.20;4.80;;;15.50;99.90;;;;;;5027615;28;20456;-72
2022/09/05 03:55:26;;;;;;;6.70;6.10;;;15.50;99.90;;;;;;5025960;28;20937;-73
2022/09/05 03:58:13;;;;;;;5.30;4.70;;;15.50;99.90;;;;;;4986835;28;20446;-73
2022/09/05 04:01:02;;;;;;;5.73;4.97;;;15.50;99.90;;;;;;5020824;28;20453;-73
2022/09/05 04:03:37;;;;;;;4.83;4.50;;;15.50;99.90;;;;;;5025169;28;20486;-72
2022/09/05 04:06:17;;;;;;;4.80;4.50;;;15.50;99.90;;;;;;5026846;28;20433;-73
2022/09/05 04:08:55;;;;;;;5.30;4.60;;;15.40;99.90;;;;;;5023438;28;20440;-73
2022/09/05 04:11:24;;;;;;;5.07;4.60;;;15.40;99.90;;;;;;5048536;22;20583;-66
2022/09/05 04:13:56;;;;;;;5.23;4.73;;;15.40;99.90;;;;;;5050109;28;20447;-66
2022/09/05 04:16:27;;;;;;;5.73;4.00;;;15.40;99.90;;;;;;5044841;28;20490;-66
2022/09/05 04:19:06;;;;;;;5.20;4.80;;;15.40;99.90;;;;;;5045053;28;20425;-66
2022/09/05 04:21:35;;;;;;;5.13;4.73;;;15.40;99.90;;;;;;5037200;28;20491;-66
2022/09/05 04:24:21;;;;;;;7.03;6.30;;;15.40;99.90;;;;;;5024518;28;20440;-66
2022/09/05 04:27:35;;;;;;;5.57;5.03;;;15.40;99.90;;;;;;5026926;28;20528;-66
2022/09/05 04:30:21;;;;;;;4.77;4.27;;;15.40;99.90;;;;;;5019768;28;21070;-66
2022/09/05 04:33:03;;;;;;;5.50;4.97;;;15.30;99.90;;;;;;5020559;28;20552;-67
2022/09/05 04:35:29;;;;;;;6.87;5.40;;;15.30;99.90;;;;;;5025907;28;20471;-66
2022/09/05 04:38:16;;;;;;;5.93;5.33;;;15.30;99.90;;;;;;5018736;28;20946;-66
2022/09/05 04:41:04;;;;;;;6.30;5.43;;;15.30;99.90;;;;;;5020785;28;20552;-66
2022/09/05 04:43:35;;;;;;;6.70;5.07;;;15.30;99.90;;;;;;5026441;28;20442;-66
2022/09/05 04:46:16;;;;;;;5.30;4.90;;;15.20;99.90;;;;;;5018515;28;20455;-66
2022/09/05 04:48:47;;;;;;;5.97;5.47;;;15.30;99.90;;;;;;5023225;28;20982;-66
2022/09/05 04:51:59;;;;;;;7.10;6.40;;;15.30;99.90;;;;;;5028958;28;20449;-66
2022/09/05 04:54:30;;;;;;;8.30;4.93;;;15.30;99.90;;;;;;5019759;28;20438;-66
2022/09/05 04:57:24;;;;;;;5.37;4.77;;;15.40;99.90;;;;;;5019369;28;20444;-66
2022/09/05 05:00:04;;;;;;;5.40;4.90;;;15.50;99.90;;;;;;5021264;28;20541;-66
2022/09/05 05:02:36;;;;;;;6.23;5.60;;;15.40;99.90;;;;;;5024878;28;20476;-66
2022/09/05 05:05:07;;;;;;;6.03;5.53;;;15.50;99.90;;;;;;5027716;28;20803;-66
2022/09/05 05:07:45;;;;;;;5.03;4.63;;;15.40;99.90;;;;;;5026937;28;20468;-66
2022/09/05 05:10:23;;;;;;;6.07;4.67;;;15.40;99.90;;;;;;5015616;28;20442;-66
2022/09/05 05:13:04;;;;;;;6.30;5.30;;;15.50;99.90;;;;;;5012682;28;20851;-66
2022/09/05 05:15:31;;;;;;;5.83;5.23;;;15.50;99.90;;;;;;5026987;28;20863;-66
2022/09/05 05:18:29;;;;;;;5.90;5.30;;;15.40;99.90;;;;;;5029442;28;20475;-66
2022/09/05 05:21:15;;;;;;;6.57;6.07;;;15.50;99.90;;;;;;5014579;28;20440;-66
2022/09/05 05:23:54;;;;;;;7.37;5.80;;;15.50;99.90;;;;;;5018363;28;20953;-66
2022/09/05 05:26:39;;;;;;;5.63;5.13;;;15.60;99.90;;;;;;5027596;28;20432;-66
2022/09/05 05:29:15;;;;;;;5.70;5.30;;;15.80;99.90;;;;;;5023076;28;20429;-66
2022/09/05 05:31:53;;;;;;;6.03;5.53;;;15.90;99.90;;;;;;5005570;28;20461;-67
2022/09/05 05:34:42;;;;;;;5.13;4.60;;;15.90;99.90;;;;;;5024355;28;20518;-67
2022/09/05 05:37:24;;;;;;;6.27;5.70;;;16.00;99.90;;;;;;5024040;28;20537;-67
2022/09/05 05:40:14;;;;;;;6.07;5.03;;;16.20;99.90;;;;;;5015950;28;20516;-67
2022/09/05 05:42:41;;;;;;;7.20;5.27;;;16.40;99.90;;;;;;5016198;28;20491;-66
2022/09/05 05:45:17;;;;;;;11.13;5.70;;;16.40;99.90;;;;;;5021313;28;20492;-67
2022/09/05 05:47:58;;;;;;;5.90;5.40;;;16.50;99.90;;;;;;5018156;28;21402;-67
2022/09/05 05:50:42;;;;;;;5.57;4.90;;;16.70;99.90;;;;;;5020120;28;20944;-67
2022/09/05 05:53:45;;;;;;;6.03;4.77;;;16.80;99.90;;;;;;5016212;28;20437;-67
2022/09/05 05:56:38;;;;;;;5.77;5.33;;;17.00;99.90;;;;;;5023717;28;20439;-67
2022/09/05 05:59:19;;;;;;;5.53;5.10;;;17.30;99.90;;;;;;5014944;28;20587;-67
2022/09/05 06:02:03;;;;;;;5.27;4.83;;;17.30;99.90;;;;;;5021243;28;20986;-67
2022/09/05 06:04:43;;;;;;;5.37;4.87;;;17.40;99.90;;;;;;5031090;28;20482;-67
2022/09/05 06:07:38;;;;;;;7.30;4.67;;;17.60;99.90;;;;;;5023145;28;20440;-67
2022/09/05 06:10:27;;;;;;;6.63;5.30;;;17.70;99.90;;;;;;5014647;28;20495;-67
2022/09/05 06:13:31;;;;;;;4.93;4.63;;;18.00;99.90;;;;;;5015063;28;20471;-68
2022/09/05 06:16:35;;;;;;;5.93;5.33;;;18.00;99.90;;;;;;5015347;28;20496;-68
2022/09/05 06:19:34;;;;;;;5.53;5.03;;;18.10;99.90;;;;;;5014294;28;20523;-68
2022/09/05 06:22:20;;;;;;;6.10;5.60;;;18.20;99.90;;;;;;5014346;28;20465;-68
2022/09/05 06:25:29;;;;;;;5.07;4.77;;;18.40;99.90;;;;;;5014947;28;20434;-68
2022/09/05 06:28:04;;;;;;;5.30;4.80;;;18.70;99.90;;;;;;5025341;28;20433;-68
2022/09/05 06:31:06;;;;;;;6.10;5.40;;;18.90;99.90;;;;;;5019539;28;20506;-68
2022/09/05 06:34:14;;;;;;;6.90;5.37;;;19.20;99.90;;;;;;5022551;28;20863;-68
2022/09/05 06:37:02;;;;;;;5.50;5.10;;;19.40;99.90;;;;;;5018473;28;20438;-68
2022/09/05 06:40:02;;;;;;;6.47;5.87;;;19.60;99.90;;;;;;5023331;28;20520;-68
2022/09/05 06:43:00;;;;;;;5.60;5.00;;;19.90;99.90;;;;;;5026546;28;20460;-68
2022/09/05 06:45:35;;;;;;;5.23;4.83;;;20.10;99.90;;;;;;5023819;28;20436;-68
2022/09/05 06:48:22;;;;;;;4.90;4.37;;;20.30;99.90;;;;;;5028751;28;20993;-68
2022/09/05 06:51:23;;;;;;;7.17;5.93;;;20.40;99.90;;;;;;5011222;28;20437;-68
2022/09/05 06:54:12;;;;;;;4.20;3.90;;;20.50;99.90;;;;;;5007774;28;20539;-68
2022/09/05 06:56:52;;;;;;;7.37;6.67;;;20.60;99.90;;;;;;5014716;28;20436;-68
2022/09/05 06:59:40;;;;;;;5.20;4.40;;;20.70;99.90;;;;;;5019850;28;20490;-68
2022/09/05 07:02:20;;;;;;;5.30;4.90;;;20.80;99.90;;;;;;5020647;28;20476;-68
2022/09/05 07:05:18;;;;;;;8.60;3.90;;;20.80;99.90;;;;;;5028099;28;20440;-68
2022/09/05 07:07:49;;;;;;;4.40;4.00;;;21.00;99.90;;;;;;5024544;28;20428;-68
2022/09/05 07:10:35;;;;;;;4.70;3.67;;;21.20;99.90;;;;;;5020025;28;20512;-68
2022/09/05 07:13:35;;;;;;;4.17;3.77;;;21.40;99.90;;;;;;5025682;28;20815;-68
2022/09/05 07:16:17;;;;;;;3.80;3.50;;;21.70;99.90;;;;;;5014461;28;20440;-68
2022/09/05 07:19:04;;;;;;;3.70;3.40;;;21.90;99.90;;;;;;5020456;28;21016;-68
2022/09/05 07:22:04;;;;;;;4.63;4.30;;;22.10;99.90;;;;;;5020793;28;20457;-68
2022/09/05 07:24:34;;;;;;;3.93;3.50;;;22.10;99.90;;;;;;5024084;28;20440;-68
2022/09/05 07:27:02;;;;;;;6.53;3.53;;;22.40;99.90;;;;;;5029710;28;20530;-68
2022/09/05 07:29:33;;;;;;;5.20;4.80;;;22.40;99.90;;;;;;5026507;28;20799;-68
2022/09/05 07:32:01;;;;;;;5.60;4.43;;;22.30;99.90;;;;;;5020077;28;20461;-68
2022/09/05 07:34:30;;;;;;;4.00;3.57;;;22.10;99.90;;;;;;5020439;28;20580;-68
2022/09/05 07:37:34;;;;;;;4.83;3.97;;;21.90;99.90;;;;;;5013468;28;20480;-68
2022/09/05 07:40:08;;;;;;;4.50;4.10;;;21.90;99.90;;;;;;5010448;28;20524;-68
2022/09/05 07:42:40;;;;;;;4.03;3.73;;;21.70;99.90;;;;;;5024611;28;20475;-68
2022/09/05 07:45:10;;;;;;;5.90;5.30;;;21.80;99.90;;;;;;5022078;28;20426;-67
2022/09/05 07:47:50;;;;;;;5.70;3.30;;;22.00;99.90;;;;;;5019881;28;20529;-68
2022/09/05 07:50:16;;;;;;;3.90;3.60;;;22.10;99.90;;;;;;5022499;28;20499;-68
2022/09/05 07:52:44;;;;;;;5.80;2.97;;;22.20;99.90;;;;;;5016938;28;20469;-68
2022/09/05 07:55:26;;;;;;;3.50;3.20;;;22.60;99.90;;;;;;5022600;28;20971;-68
2022/09/05 07:57:56;;;;;;;3.80;3.50;;;22.80;99.90;;;;;;5022223;28;20475;-68
2022/09/05 08:00:25;;;;;;;3.07;2.87;;;22.90;99.90;;;;;;5021826;28;20468;-67
2022/09/05 08:02:51;;;;;;;5.03;4.53;;;23.20;99.90;;;;;;5027376;28;20472;-68
2022/09/05 08:05:19;;;;;;;4.97;4.47;;;23.30;99.90;;;;;;5021117;28;20788;-68
2022/09/05 08:07:50;;;;;;;3.53;3.23;;;23.30;99.90;;;;;;5021369;28;20179;-68
2022/09/05 08:10:26;;;;;;;2.90;2.70;;;23.30;99.90;;;;;;5011222;28;20434;-67
2022/09/05 08:13:00;;;;;;;3.97;3.57;;;23.20;99.90;;;;;;5012468;28;20480;-67
2022/09/05 08:15:28;;;;;;;3.50;3.20;;;23.50;99.90;;;;;;5019126;28;20432;-67
2022/09/05 08:18:10;;;;;;;3.73;3.53;;;23.50;99.90;;;;;;5011793;28;20529;-67
2022/09/05 08:20:55;;;;;;;10.63;7.80;;;23.40;99.90;;;;;;5024095;28;20554;-67
2022/09/05 08:23:47;;;;;;;3.70;3.40;;;24.00;99.90;;;;;;5020309;28;20548;-67
2022/09/05 08:26:22;;;;;;;6.83;3.23;;;24.50;99.90;;;;;;5015225;28;20433;-67
2022/09/05 08:29:30;;;;;;;3.70;3.40;;;25.00;99.90;;;;;;5021378;28;20468;-67
2022/09/05 08:32:23;;;;;;;7.70;4.50;;;25.30;99.90;;;;;;5007552;28;20523;-67
2022/09/05 08:35:08;;;;;;;8.00;4.00;;;25.70;99.90;;;;;;5014826;28;20438;-67
2022/09/05 08:37:34;;;;;;;5.83;3.57;;;25.90;99.90;;;;;;5016670;28;20536;-67
2022/09/05 08:40:25;;;;;;;4.93;3.93;;;26.10;99.90;;;;;;5016230;28;20460;-67
2022/09/05 08:43:16;;;;;;;4.13;3.77;;;25.80;99.90;;;;;;5018991;28;20476;-67
2022/09/05 08:46:02;;;;;;;5.67;3.17;;;25.40;99.90;;;;;;5011808;28;20437;-66
2022/09/05 08:48:43;;;;;;;5.10;3.40;;;25.90;99.90;;;;;;5021697;28;20491;-66
2022/09/05 08:51:25;;;;;;;2.67;2.50;;;26.50;99.90;;;;;;5010249;28;20993;-67
2022/09/05 08:54:15;;;;;;;7.00;2.80;;;27.10;99.90;;;;;;5016276;28;20472;-67
2022/09/05 08:56:59;;;;;;;3.20;3.00;;;27.50;99.90;;;;;;5010766;28;20444;-67
2022/09/05 08:59:39;;;;;;;3.27;2.97;;;28.00;99.90;;;;;;5024717;28;20441;-67
2022/09/05 09:02:43;;;;;;;3.37;3.17;;;28.60;99.90;;;;;;5024536;28;20468;-67
2022/09/05 09:05:27;;;;;;;4.13;3.73;;;28.70;99.90;;;;;;5011249;28;20438;-67
2022/09/05 09:08:37;;;;;;;3.33;3.13;;;28.60;99.90;;;;;;5010951;28;20430;-67
2022/09/05 09:11:29;;;;;;;3.10;2.90;;;28.50;99.90;;;;;;5008817;28;20520;-67
2022/09/05 09:14:34;;;;;;;3.87;3.17;;;28.70;99.90;;;;;;5023237;28;20804;-67
2022/09/05 09:17:14;;;;;;;3.33;3.13;;;29.80;98.30;;;;;;5017065;28;20433;-67
2022/09/05 09:20:08;;;;;;;3.13;2.93;;;30.20;97.40;;;;;;5017097;28;20429;-67
2022/09/05 09:22:52;;;;;;;3.70;3.40;;;30.40;96.40;;;;;;5023753;28;20561;-67
2022/09/05 09:25:28;;;;;;;3.63;3.10;;;31.40;94.50;;;;;;5015785;28;20425;-67
2022/09/05 09:28:11;;;;;;;3.23;3.03;;;32.60;92.20;;;;;;5015455;28;20441;-67
2022/09/05 09:30:41;;;;;;;3.60;3.30;;;33.40;89.50;;;;;;5014695;28;20436;-67
2022/09/05 09:33:14;;;;;;;3.67;3.00;;;34.00;86.60;;;;;;5024115;28;20962;-67
2022/09/05 09:36:00;;;;;;;2.67;2.47;;;34.40;83.10;;;;;;5008866;28;21582;-67
2022/09/05 09:38:48;;;;;;;3.37;3.17;;;35.20;79.40;;;;;;5013874;28;20524;-65
2022/09/05 09:41:26;;;;;;;3.10;2.90;;;35.60;76.00;;;;;;5018423;28;20463;-64
2022/09/05 09:44:14;;;;;;;3.90;3.40;;;35.50;73.80;;;;;;5017341;28;20917;-65
2022/09/05 09:46:44;;;;;;;3.37;3.17;;;35.10;70.30;;;;;;5018870;28;20458;-65
2022/09/05 09:49:17;;;;;;;3.30;3.00;;;34.30;72.10;;;;;;5012412;28;20520;-65
2022/09/05 09:52:01;;;;;;;3.40;3.20;;;34.50;71.20;;;;;;5013353;28;20468;-65
2022/09/05 09:54:58;;;;;;;5.70;5.20;;;33.50;71.50;;;;;;5016326;28;20443;-65
2022/09/05 09:58:02;;;;;;;4.27;3.00;;;35.50;71.20;;;;;;5018482;28;20449;-65
2022/09/05 10:00:50;;;;;;;3.00;2.80;;;36.80;67.60;;;;;;5020477;28;20429;-65
2022/09/05 10:03:37;;;;;;;3.27;3.07;;;37.30;63.50;;;;;;5017842;28;20492;-67
2022/09/05 10:06:42;;;;;;;3.47;3.27;;;38.10;60.60;;;;;;5013956;28;20809;-67
2022/09/05 10:09:19;;;;;;;3.07;2.87;;;39.10;57.10;;;;;;5005715;28;20853;-66
2022/09/05 10:12:25;;;;;;;2.90;2.70;;;40.00;54.70;;;;;;5040106;22;20496;-66
2022/09/05 10:15:09;;;;;;;3.00;2.80;;;38.40;55.80;;;;;;5023328;28;20836;-66
2022/09/05 10:17:45;;;;;;;2.60;2.50;;;39.10;55.20;;;;;;5027933;28;20482;-66
2022/09/05 10:20:34;;;;;;;2.60;2.50;;;40.00;53.50;;;;;;5025419;28;20452;-65
2022/09/05 10:23:21;;;;;;;5.77;3.70;;;40.90;51.40;;;;;;5020781;28;20559;-65
2022/09/05 10:25:56;;;;;;;2.33;2.23;;;40.70;50.80;;;;;;5007982;28;20441;-66
2022/09/05 10:28:47;;;;;;;2.80;2.70;;;40.40;50.60;;;;;;5012843;28;20430;-66
2022/09/05 10:31:21;;;;;;;3.20;2.90;;;41.80;48.50;;;;;;4997150;28;20430;-65
2022/09/05 10:34:13;;;;;;;3.07;2.87;;;42.60;47.10;;;;;;5003520;28;21226;-65
2022/09/05 10:36:40;;;;;;;3.27;2.67;;;42.80;46.90;;;;;;5002305;28;20430;-66
2022/09/05 10:39:13;;;;;;;2.80;2.60;;;42.10;46.00;;;;;;5025520;28;20436;-65
2022/09/05 10:41:49;;;;;;;2.43;2.33;;;42.20;46.20;;;;;;5013439;28;20463;-65
2022/09/05 10:44:24;;;;;;;3.00;2.80;;;42.30;45.30;;;;;;5031497;28;20467;-66
2022/09/05 10:46:57;;;;;;;3.37;3.17;;;43.40;44.70;;;;;;5031426;28;20486;-66
2022/09/05 10:49:32;;;;;;;3.10;2.90;;;41.90;45.40;;;;;;5030792;28;20416;-66
2022/09/05 10:52:15;;;;;;;3.10;2.83;;;42.40;44.90;;;;;;5031258;28;20440;-66
2022/09/05 10:55:20;;;;;;;3.57;3.37;;;42.10;45.50;;;;;;5031425;28;20417;-66
2022/09/05 10:57:58;;;;;;;2.53;2.43;;;41.50;45.30;;;;;;5031205;28;20416;-66
2022/09/05 11:00:57;;;;;;;2.87;2.77;;;41.30;45.60;;;;;;5030622;28;20791;-66
2022/09/05 11:03:31;;;;;;;3.13;3.00;;;40.90;45.30;;;;;;5026414;28;20461;-66
2022/09/05 11:06:00;;;;;;;3.00;2.80;;;41.60;46.00;;;;;;5031481;28;20472;-66
2022/09/05 11:08:59;;;;;;;3.00;2.80;;;41.60;45.20;;;;;;5030592;28;20940;-66
2022/09/05 11:11:26;;;;;;;3.07;2.90;;;42.20;44.70;;;;;;5027174;28;20863;-66
2022/09/05 11:13:58;;;;;;;3.20;3.07;;;43.00;43.60;;;;;;5031179;28;20433;-66
2022/09/05 11:16:38;;;;;;;3.17;2.97;;;40.50;44.20;;;;;;5031406;28;20977;-65
2022/09/05 11:19:17;;;;;;;3.20;3.00;;;42.10;43.60;;;;;;5031753;28;20566;-66
2022/09/05 11:21:51;;;;;;;3.20;3.00;;;43.90;43.10;;;;;;5034844;28;20460;-65
2022/09/05 11:24:42;;;;;;;2.97;2.87;;;42.20;43.70;;;;;;5034706;28;20412;-66
2022/09/05 11:27:21;;;;;;;2.90;2.70;;;43.00;43.40;;;;;;5019505;28;20444;-65
2022/09/05 11:29:50;;;;;;;3.40;3.10;;;41.70;43.70;;;;;;5014075;28;20444;-65
2022/09/05 11:32:50;;;;;;;2.77;2.57;;;38.90;44.20;;;;;;5007838;28;20475;-65
2022/09/05 11:35:26;;;;;;;3.07;2.87;;;35.00;47.20;;;;;;5017246;28;20442;-65
2022/09/05 11:37:58;;;;;;;3.03;2.83;;;34.10;49.00;;;;;;5015563;28;20546;-65
2022/09/05 11:40:35;;;;;;;3.23;3.03;;;33.90;49.20;;;;;;4999065;28;20438;-66
2022/09/05 11:43:19;;;;;;;3.50;3.20;;;34.00;49.50;;;;;;5015196;28;20469;-66
2022/09/05 11:46:07;;;;;;;3.23;2.57;;;33.90;49.00;;;;;;5022881;28;20789;-66
2022/09/05 11:49:05;;;;;;;3.63;3.33;;;33.40;50.00;;;;;;5016230;28;21144;-66
2022/09/05 11:51:57;;;;;;;3.80;3.50;;;33.00;51.20;;;;;;5008676;28;20990;-66
2022/09/05 11:55:04;;;;;;;2.83;2.60;;;33.20;51.80;;;;;;5019462;28;20428;-67
2022/09/05 11:57:32;;;;;;;3.27;2.77;;;36.10;49.60;;;;;;4954078;28;20486;-66
2022/09/05 12:00:04;;;;;;;3.60;3.33;;;38.10;47.80;;;;;;4951714;28;20464;-67
2022/09/05 12:02:41;;;;;;;3.47;3.17;;;39.10;45.90;;;;;;4991547;28;20472;-66
2022/09/05 12:05:31;;;;;;;2.70;2.50;;;39.10;45.90;;;;;;5021505;28;20441;-67
2022/09/05 12:08:05;;;;;;;3.17;2.93;;;39.50;45.20;;;;;;5028135;28;20437;-67
2022/09/05 12:11:11;;;;;;;5.63;2.73;;;38.20;45.90;;;;;;5025998;28;20430;-67
2022/09/05 12:13:47;;;;;;;3.27;2.97;;;36.50;48.40;;;;;;4955436;28;20449;-66
2022/09/05 12:16:34;;;;;;;3.60;3.40;;;34.80;49.20;;;;;;5009560;28;20443;-67
2022/09/05 12:19:11;;;;;;;3.23;3.03;;;33.70;50.40;;;;;;5019836;28;20485;-66
2022/09/05 12:21:51;;;;;;;3.37;3.17;;;32.90;52.10;;;;;;5015105;28;20479;-68
2022/09/05 12:24:31;;;;;;;3.73;3.53;;;32.00;52.40;;;;;;5009519;28;20447;-66
2022/09/05 12:27:07;;;;;;;4.13;3.80;;;31.70;53.50;;;;;;4995754;28;20435;-66
2022/09/05 12:29:39;;;;;;;3.97;3.67;;;31.50;54.00;;;;;;5010185;28;20441;-66
2022/09/05 12:32:14;;;;;;;2.90;2.70;;;31.30;54.30;;;;;;5010652;28;20465;-66
2022/09/05 12:34:49;;;;;;;3.63;2.63;;;31.90;54.90;;;;;;5008593;28;20432;-66
2022/09/05 12:37:21;;;;;;;3.73;3.03;;;35.60;52.10;;;;;;5014895;28;20448;-66
2022/09/05 12:40:10;;;;;;;3.00;2.80;;;39.70;47.70;;;;;;5006433;28;20535;-67
2022/09/05 12:42:56;;;;;;;3.27;3.07;;;42.70;44.30;;;;;;4998938;28;20871;-67
2022/09/05 12:45:46;;;;;;;2.83;2.63;;;43.70;43.60;;;;;;5018649;28;20440;-67
2022/09/05 12:48:37;;;;;;;2.83;2.63;;;43.00;43.70;;;;;;5009651;28;20476;-67
2022/09/05 12:51:18;;;;;;;3.40;2.73;;;42.40;43.50;;;;;;5010248;28;20863;-67
2022/09/05 12:53:49;;;;;;;3.07;2.87;;;40.20;44.00;;;;;;5008617;28;20529;-67
2022/09/05 12:56:32;;;;;;;3.00;2.83;;;41.20;44.20;;;;;;4998152;28;20997;-67
2022/09/05 12:58:59;;;;;;;3.33;3.03;;;44.20;42.00;;;;;;5010360;28;20441;-67
2022/09/05 13:01:37;;;;;;;2.80;2.70;;;44.50;39.00;;;;;;5013338;28;20942;-67
2022/09/05 13:04:12;;;;;;;3.00;2.80;;;43.80;39.10;;;;;;5003518;28;20810;-67
2022/09/05 13:06:42;;;;;;;3.20;3.00;;;44.60;38.80;;;;;;5007178;28;20479;-67
2022/09/05 13:09:15;;;;;;;3.30;3.10;;;45.70;38.50;;;;;;5003062;28;20437;-67
2022/09/05 13:12:04;;;;;;;2.87;2.67;;;45.30;37.40;;;;;;5008423;28;20473;-67
2022/09/05 13:14:39;;;;;;;2.43;2.33;;;43.00;38.10;;;;;;4979296;28;20469;-67
2022/09/05 13:17:07;;;;;;;3.23;2.93;;;44.90;37.60;;;;;;5019352;28;20433;-67
2022/09/05 13:19:43;;;;;;;2.70;2.60;;;46.50;36.10;;;;;;5004598;28;20436;-67
2022/09/05 13:22:13;;;;;;;3.40;3.20;;;44.40;36.70;;;;;;5014932;28;20891;-67
2022/09/05 13:24:41;;;;;;;3.37;3.17;;;42.40;38.80;;;;;;4997392;28;20439;-67
2022/09/05 13:27:20;;;;;;;3.33;3.03;;;44.40;38.20;;;;;;5013529;28;20429;-67
2022/09/05 13:29:56;;;;;;;3.20;3.00;;;45.70;36.80;;;;;;5012756;28;20445;-67
2022/09/05 13:32:29;;;;;;;3.90;3.17;;;45.70;37.10;;;;;;5021351;28;20461;-67
2022/09/05 13:35:07;;;;;;;3.00;2.80;;;46.20;36.40;;;;;;5002031;28;20430;-67
2022/09/05 13:37:45;;;;;;;3.47;2.93;;;45.80;35.90;;;;;;5015628;28;20445;-67
2022/09/05 13:40:18;;;;;;;2.97;2.80;;;45.80;35.80;;;;;;4987773;28;20810;-67
2022/09/05 13:42:55;;;;;;;4.13;3.90;;;45.20;35.80;;;;;;5015022;28;20468;-67
2022/09/05 13:45:21;;;;;;;3.50;3.33;;;44.00;36.10;;;;;;5009113;28;20438;-67
2022/09/05 13:48:14;;;;;;;3.20;3.03;;;42.60;37.00;;;;;;5021952;28;20511;-67
2022/09/05 13:50:45;;;;;;;4.07;3.87;;;40.10;39.20;;;;;;5003894;28;20205;-67
2022/09/05 13:53:11;;;;;;;2.90;2.80;;;38.30;40.70;;;;;;5021464;28;20874;-67
2022/09/05 13:55:38;;;;;;;3.47;3.17;;;38.20;41.10;;;;;;5012260;28;20437;-67
2022/09/05 13:58:16;;;;;;;3.07;2.87;;;37.70;41.60;;;;;;5005679;28;20179;-67
2022/09/05 14:00:42;;;;;;;3.40;3.20;;;36.80;42.30;;;;;;5015282;28;20523;-67
2022/09/05 14:03:22;;;;;;;3.00;2.80;;;36.20;42.40;;;;;;5021886;28;20556;-67
2022/09/05 14:06:03;;;;;;;3.50;3.20;;;34.50;44.10;;;;;;4998856;28;20175;-66